sensor_id;sensor_type;location;lat;lon;timestamp;P1;durP1;ratioP1;P2;durP2;ratioP2
37425;SDS011;23285;50.180;7.036;2022-11-21T00:01:28;13.80;;;3.23;;
37425;SDS011;23285;50.180;7.036;2022-11-21T00:04:13;16.20;;;3.60;;
37425;SDS011;23285;50.180;7.036;2022-11-21T00:06:59;18.50;;;3.70;;
37425;SDS011;23285;50.180;7.036;2022-11-21T00:09:44;20.03;;;3.80;;
37425;SDS011;23285;50.180;7.036;2022-11-21T00:12:29;18.83;;;4.20;;
37425;SDS011;23285;50.180;7.036;2022-11-21T00:15:14;16.23;;;3.93;;
37425;SDS011;23285;50.180;7.036;2022-11-21T00:18:00;12.03;;;3.00;;
37425;SDS011;23285;50.180;7.036;2022-11-21T00:20:47;12.27;;;3.70;;
37425;SDS011;23285;50.180;7.036;2022-11-21T00:23:32;20.83;;;4.50;;
37425;SDS011;23285;50.180;7.036;2022-11-21T00:26:17;14.20;;;3.60;;
37425;SDS011;23285;50.180;7.036;2022-11-21T00:29:02;16.77;;;3.97;;
37425;SDS011;23285;50.180;7.036;2022-11-21T00:31:47;23.10;;;4.20;;
37425;SDS011;23285;50.180;7.036;2022-11-21T00:34:33;18.40;;;4.70;;
37425;SDS011;23285;50.180;7.036;2022-11-21T00:37:18;15.23;;;3.87;;
37425;SDS011;23285;50.180;7.036;2022-11-21T00:40:03;21.10;;;3.17;;
37425;SDS011;23285;50.180;7.036;2022-11-21T00:42:49;14.17;;;3.30;;
37425;SDS011;23285;50.180;7.036;2022-11-21T00:45:34;17.30;;;4.33;;
37425;SDS011;23285;50.180;7.036;2022-11-21T00:48:19;24.57;;;4.43;;
37425;SDS011;23285;50.180;7.036;2022-11-21T00:51:06;9.83;;;3.60;;
37425;SDS011;23285;50.180;7.036;2022-11-21T00:53:51;17.77;;;3.20;;
37425;SDS011;23285;50.180;7.036;2022-11-21T00:56:36;13.07;;;4.13;;
37425;SDS011;23285;50.180;7.036;2022-11-21T00:59:21;20.27;;;4.50;;
37425;SDS011;23285;50.180;7.036;2022-11-21T01:02:06;18.80;;;4.50;;
37425;SDS011;23285;50.180;7.036;2022-11-21T01:04:51;13.83;;;3.90;;
37425;SDS011;23285;50.180;7.036;2022-11-21T01:07:36;14.87;;;3.83;;
37425;SDS011;23285;50.180;7.036;2022-11-21T01:10:21;15.37;;;3.37;;
37425;SDS011;23285;50.180;7.036;2022-11-21T01:13:06;13.23;;;4.20;;
37425;SDS011;23285;50.180;7.036;2022-11-21T01:15:51;13.93;;;3.57;;
37425;SDS011;23285;50.180;7.036;2022-11-21T01:18:36;12.30;;;3.80;;
37425;SDS011;23285;50.180;7.036;2022-11-21T01:21:26;13.20;;;3.97;;
37425;SDS011;23285;50.180;7.036;2022-11-21T01:24:11;19.73;;;4.03;;
37425;SDS011;23285;50.180;7.036;2022-11-21T01:26:57;19.47;;;4.27;;
37425;SDS011;23285;50.180;7.036;2022-11-21T01:29:42;19.33;;;4.20;;
37425;SDS011;23285;50.180;7.036;2022-11-21T01:32:27;18.20;;;4.20;;
37425;SDS011;23285;50.180;7.036;2022-11-21T01:35:12;15.30;;;3.27;;
37425;SDS011;23285;50.180;7.036;2022-11-21T01:37:57;15.63;;;4.27;;
37425;SDS011;23285;50.180;7.036;2022-11-21T01:40:42;17.60;;;4.67;;
37425;SDS011;23285;50.180;7.036;2022-11-21T01:43:27;14.07;;;3.50;;
37425;SDS011;23285;50.180;7.036;2022-11-21T01:46:14;17.60;;;4.50;;
37425;SDS011;23285;50.180;7.036;2022-11-21T01:55:09;8.50;;;2.73;;
37425;SDS011;23285;50.180;7.036;2022-11-21T01:57:55;10.50;;;2.90;;
37425;SDS011;23285;50.180;7.036;2022-11-21T02:00:39;14.93;;;3.47;;
37425;SDS011;23285;50.180;7.036;2022-11-21T02:03:29;9.97;;;3.33;;
37425;SDS011;23285;50.180;7.036;2022-11-21T02:06:17;13.20;;;3.17;;
37425;SDS011;23285;50.180;7.036;2022-11-21T02:09:02;8.67;;;2.80;;
37425;SDS011;23285;50.180;7.036;2022-11-21T02:11:50;14.17;;;3.27;;
37425;SDS011;23285;50.180;7.036;2022-11-21T02:14:39;11.87;;;3.17;;
37425;SDS011;23285;50.180;7.036;2022-11-21T02:17:28;9.83;;;2.77;;
37425;SDS011;23285;50.180;7.036;2022-11-21T02:20:14;5.37;;;2.50;;
37425;SDS011;23285;50.180;7.036;2022-11-21T02:26:10;7.00;;;2.50;;
37425;SDS011;23285;50.180;7.036;2022-11-21T02:28:56;13.23;;;2.50;;
37425;SDS011;23285;50.180;7.036;2022-11-21T02:31:42;8.67;;;2.67;;
37425;SDS011;23285;50.180;7.036;2022-11-21T02:34:26;8.37;;;2.43;;
37425;SDS011;23285;50.180;7.036;2022-11-21T02:37:11;8.30;;;2.40;;
37425;SDS011;23285;50.180;7.036;2022-11-21T02:39:57;7.43;;;2.77;;
37425;SDS011;23285;50.180;7.036;2022-11-21T02:42:46;8.27;;;2.67;;
37425;SDS011;23285;50.180;7.036;2022-11-21T02:45:41;5.13;;;2.40;;
37425;SDS011;23285;50.180;7.036;2022-11-21T02:48:28;5.53;;;2.30;;
37425;SDS011;23285;50.180;7.036;2022-11-21T02:51:13;6.30;;;2.63;;
37425;SDS011;23285;50.180;7.036;2022-11-21T02:53:58;5.80;;;2.30;;
37425;SDS011;23285;50.180;7.036;2022-11-21T02:56:43;9.20;;;3.10;;
37425;SDS011;23285;50.180;7.036;2022-11-21T02:59:27;6.83;;;2.20;;
37425;SDS011;23285;50.180;7.036;2022-11-21T03:02:13;5.37;;;2.40;;
37425;SDS011;23285;50.180;7.036;2022-11-21T03:04:58;9.07;;;3.00;;
37425;SDS011;23285;50.180;7.036;2022-11-21T03:07:43;7.73;;;2.63;;
37425;SDS011;23285;50.180;7.036;2022-11-21T03:10:29;6.87;;;2.70;;
37425;SDS011;23285;50.180;7.036;2022-11-21T03:13:14;7.27;;;2.30;;
37425;SDS011;23285;50.180;7.036;2022-11-21T03:15:59;8.90;;;2.63;;
37425;SDS011;23285;50.180;7.036;2022-11-21T03:18:44;4.73;;;2.13;;
37425;SDS011;23285;50.180;7.036;2022-11-21T03:21:29;8.03;;;2.33;;
37425;SDS011;23285;50.180;7.036;2022-11-21T03:24:14;8.70;;;1.93;;
37425;SDS011;23285;50.180;7.036;2022-11-21T03:26:59;11.27;;;3.27;;
37425;SDS011;23285;50.180;7.036;2022-11-21T03:29:44;6.37;;;2.30;;
37425;SDS011;23285;50.180;7.036;2022-11-21T03:32:30;6.47;;;2.27;;
37425;SDS011;23285;50.180;7.036;2022-11-21T03:35:15;7.33;;;2.33;;
37425;SDS011;23285;50.180;7.036;2022-11-21T03:38:00;4.60;;;1.90;;
37425;SDS011;23285;50.180;7.036;2022-11-21T03:40:45;5.90;;;2.00;;
37425;SDS011;23285;50.180;7.036;2022-11-21T03:43:30;3.80;;;1.80;;
37425;SDS011;23285;50.180;7.036;2022-11-21T03:46:16;5.20;;;1.90;;
37425;SDS011;23285;50.180;7.036;2022-11-21T03:49:02;2.57;;;1.90;;
37425;SDS011;23285;50.180;7.036;2022-11-21T03:51:47;2.93;;;1.53;;
37425;SDS011;23285;50.180;7.036;2022-11-21T03:54:33;4.73;;;1.83;;
37425;SDS011;23285;50.180;7.036;2022-11-21T03:57:17;7.30;;;2.03;;
37425;SDS011;23285;50.180;7.036;2022-11-21T04:00:02;4.67;;;2.03;;
37425;SDS011;23285;50.180;7.036;2022-11-21T04:02:49;5.57;;;2.20;;
37425;SDS011;23285;50.180;7.036;2022-11-21T04:05:34;6.20;;;2.23;;
37425;SDS011;23285;50.180;7.036;2022-11-21T04:08:19;4.47;;;2.60;;
37425;SDS011;23285;50.180;7.036;2022-11-21T04:11:04;5.60;;;2.33;;
37425;SDS011;23285;50.180;7.036;2022-11-21T04:13:50;6.93;;;2.33;;
37425;SDS011;23285;50.180;7.036;2022-11-21T04:16:35;7.10;;;2.40;;
37425;SDS011;23285;50.180;7.036;2022-11-21T04:19:21;5.13;;;2.00;;
37425;SDS011;23285;50.180;7.036;2022-11-21T04:22:05;5.43;;;2.90;;
37425;SDS011;23285;50.180;7.036;2022-11-21T04:24:50;9.87;;;2.87;;
37425;SDS011;23285;50.180;7.036;2022-11-21T04:27:36;4.90;;;2.07;;
37425;SDS011;23285;50.180;7.036;2022-11-21T04:30:21;5.07;;;2.30;;
37425;SDS011;23285;50.180;7.036;2022-11-21T04:33:06;7.67;;;3.20;;
37425;SDS011;23285;50.180;7.036;2022-11-21T04:35:51;8.97;;;2.43;;
37425;SDS011;23285;50.180;7.036;2022-11-21T04:38:36;5.07;;;2.50;;
37425;SDS011;23285;50.180;7.036;2022-11-21T04:41:21;7.27;;;2.60;;
37425;SDS011;23285;50.180;7.036;2022-11-21T04:44:06;6.13;;;2.90;;
37425;SDS011;23285;50.180;7.036;2022-11-21T04:46:52;9.03;;;3.13;;
37425;SDS011;23285;50.180;7.036;2022-11-21T04:49:36;5.97;;;2.33;;
37425;SDS011;23285;50.180;7.036;2022-11-21T04:52:21;2.70;;;1.80;;
37425;SDS011;23285;50.180;7.036;2022-11-21T04:55:07;4.90;;;2.27;;
37425;SDS011;23285;50.180;7.036;2022-11-21T04:57:52;4.30;;;2.23;;
37425;SDS011;23285;50.180;7.036;2022-11-21T05:00:37;6.87;;;2.20;;
37425;SDS011;23285;50.180;7.036;2022-11-21T05:03:22;5.50;;;3.20;;
37425;SDS011;23285;50.180;7.036;2022-11-21T05:06:08;5.23;;;2.87;;
37425;SDS011;23285;50.180;7.036;2022-11-21T05:08:53;6.70;;;3.77;;
37425;SDS011;23285;50.180;7.036;2022-11-21T05:11:38;6.40;;;2.50;;
37425;SDS011;23285;50.180;7.036;2022-11-21T05:14:42;5.37;;;2.57;;
37425;SDS011;23285;50.180;7.036;2022-11-21T05:17:27;5.43;;;2.60;;
37425;SDS011;23285;50.180;7.036;2022-11-21T05:20:12;6.93;;;3.13;;
37425;SDS011;23285;50.180;7.036;2022-11-21T05:22:58;8.63;;;3.00;;
37425;SDS011;23285;50.180;7.036;2022-11-21T05:25:43;5.97;;;2.70;;
37425;SDS011;23285;50.180;7.036;2022-11-21T05:28:28;6.60;;;2.50;;
37425;SDS011;23285;50.180;7.036;2022-11-21T05:31:13;4.37;;;2.40;;
37425;SDS011;23285;50.180;7.036;2022-11-21T05:33:58;7.33;;;3.37;;
37425;SDS011;23285;50.180;7.036;2022-11-21T05:36:43;3.43;;;2.10;;
37425;SDS011;23285;50.180;7.036;2022-11-21T05:39:28;6.43;;;3.43;;
37425;SDS011;23285;50.180;7.036;2022-11-21T05:42:14;6.17;;;3.30;;
37425;SDS011;23285;50.180;7.036;2022-11-21T05:44:59;5.57;;;3.30;;
37425;SDS011;23285;50.180;7.036;2022-11-21T05:47:44;8.53;;;4.13;;
37425;SDS011;23285;50.180;7.036;2022-11-21T05:50:29;9.30;;;4.57;;
37425;SDS011;23285;50.180;7.036;2022-11-21T05:53:14;7.80;;;3.20;;
37425;SDS011;23285;50.180;7.036;2022-11-21T05:56:04;5.90;;;3.37;;
37425;SDS011;23285;50.180;7.036;2022-11-21T05:58:54;4.60;;;3.37;;
37425;SDS011;23285;50.180;7.036;2022-11-21T06:01:39;8.33;;;4.10;;
37425;SDS011;23285;50.180;7.036;2022-11-21T06:04:43;8.17;;;4.77;;
37425;SDS011;23285;50.180;7.036;2022-11-21T06:07:28;4.93;;;3.63;;
37425;SDS011;23285;50.180;7.036;2022-11-21T06:10:13;8.87;;;3.83;;
37425;SDS011;23285;50.180;7.036;2022-11-21T06:12:59;8.43;;;3.23;;
37425;SDS011;23285;50.180;7.036;2022-11-21T06:15:45;6.60;;;3.17;;
37425;SDS011;23285;50.180;7.036;2022-11-21T06:18:33;8.80;;;4.27;;
37425;SDS011;23285;50.180;7.036;2022-11-21T06:21:23;6.83;;;3.83;;
37425;SDS011;23285;50.180;7.036;2022-11-21T06:24:09;6.47;;;3.57;;
37425;SDS011;23285;50.180;7.036;2022-11-21T06:26:55;9.57;;;4.60;;
37425;SDS011;23285;50.180;7.036;2022-11-21T06:29:41;14.20;;;5.03;;
37425;SDS011;23285;50.180;7.036;2022-11-21T06:32:26;10.37;;;4.30;;
37425;SDS011;23285;50.180;7.036;2022-11-21T06:35:11;5.47;;;3.07;;
37425;SDS011;23285;50.180;7.036;2022-11-21T06:37:56;6.10;;;3.17;;
37425;SDS011;23285;50.180;7.036;2022-11-21T06:40:41;12.27;;;5.77;;
37425;SDS011;23285;50.180;7.036;2022-11-21T06:43:26;9.97;;;4.30;;
37425;SDS011;23285;50.180;7.036;2022-11-21T06:46:12;11.10;;;5.10;;
37425;SDS011;23285;50.180;7.036;2022-11-21T06:48:57;4.57;;;3.30;;
37425;SDS011;23285;50.180;7.036;2022-11-21T06:51:42;7.70;;;3.47;;
37425;SDS011;23285;50.180;7.036;2022-11-21T06:54:27;5.13;;;2.90;;
37425;SDS011;23285;50.180;7.036;2022-11-21T06:57:12;4.47;;;3.53;;
37425;SDS011;23285;50.180;7.036;2022-11-21T06:59:57;7.97;;;3.80;;
37425;SDS011;23285;50.180;7.036;2022-11-21T07:02:42;11.73;;;4.67;;
37425;SDS011;23285;50.180;7.036;2022-11-21T07:05:27;5.93;;;3.27;;
37425;SDS011;23285;50.180;7.036;2022-11-21T07:08:13;7.70;;;2.90;;
37425;SDS011;23285;50.180;7.036;2022-11-21T07:11:05;4.57;;;2.70;;
37425;SDS011;23285;50.180;7.036;2022-11-21T07:13:52;5.30;;;2.87;;
37425;SDS011;23285;50.180;7.036;2022-11-21T07:16:37;4.73;;;2.43;;
37425;SDS011;23285;50.180;7.036;2022-11-21T07:19:23;5.47;;;2.67;;
37425;SDS011;23285;50.180;7.036;2022-11-21T07:22:08;5.57;;;3.03;;
37425;SDS011;23285;50.180;7.036;2022-11-21T07:24:53;5.27;;;2.93;;
37425;SDS011;23285;50.180;7.036;2022-11-21T07:27:38;6.70;;;3.17;;
37425;SDS011;23285;50.180;7.036;2022-11-21T07:30:24;8.33;;;2.90;;
37425;SDS011;23285;50.180;7.036;2022-11-21T07:33:09;8.23;;;2.53;;
37425;SDS011;23285;50.180;7.036;2022-11-21T07:35:54;4.97;;;2.27;;
37425;SDS011;23285;50.180;7.036;2022-11-21T07:38:44;6.20;;;2.93;;
37425;SDS011;23285;50.180;7.036;2022-11-21T07:41:29;6.70;;;2.70;;
37425;SDS011;23285;50.180;7.036;2022-11-21T07:44:15;6.93;;;2.90;;
37425;SDS011;23285;50.180;7.036;2022-11-21T07:47:00;6.90;;;2.97;;
37425;SDS011;23285;50.180;7.036;2022-11-21T07:49:46;6.13;;;3.10;;
37425;SDS011;23285;50.180;7.036;2022-11-21T07:52:31;5.40;;;2.77;;
37425;SDS011;23285;50.180;7.036;2022-11-21T07:55:16;9.87;;;5.43;;
37425;SDS011;23285;50.180;7.036;2022-11-21T08:00:48;8.30;;;4.73;;
37425;SDS011;23285;50.180;7.036;2022-11-21T08:03:33;11.93;;;4.40;;
37425;SDS011;23285;50.180;7.036;2022-11-21T08:06:18;8.87;;;4.00;;
37425;SDS011;23285;50.180;7.036;2022-11-21T08:09:03;9.57;;;4.10;;
37425;SDS011;23285;50.180;7.036;2022-11-21T08:11:48;5.70;;;3.23;;
37425;SDS011;23285;50.180;7.036;2022-11-21T08:14:33;7.67;;;3.90;;
37425;SDS011;23285;50.180;7.036;2022-11-21T08:17:19;10.67;;;3.53;;
37425;SDS011;23285;50.180;7.036;2022-11-21T08:20:04;9.60;;;2.93;;
37425;SDS011;23285;50.180;7.036;2022-11-21T08:22:50;4.67;;;2.70;;
37425;SDS011;23285;50.180;7.036;2022-11-21T08:25:36;9.20;;;3.30;;
37425;SDS011;23285;50.180;7.036;2022-11-21T08:28:21;14.13;;;6.73;;
37425;SDS011;23285;50.180;7.036;2022-11-21T08:31:07;8.77;;;3.43;;
37425;SDS011;23285;50.180;7.036;2022-11-21T08:33:54;6.63;;;3.77;;
37425;SDS011;23285;50.180;7.036;2022-11-21T08:36:40;12.03;;;4.40;;
37425;SDS011;23285;50.180;7.036;2022-11-21T08:39:25;8.10;;;3.43;;
37425;SDS011;23285;50.180;7.036;2022-11-21T08:42:11;10.17;;;3.10;;
37425;SDS011;23285;50.180;7.036;2022-11-21T08:44:56;7.10;;;3.33;;
37425;SDS011;23285;50.180;7.036;2022-11-21T08:47:41;6.37;;;3.10;;
37425;SDS011;23285;50.180;7.036;2022-11-21T08:50:26;12.23;;;3.97;;
37425;SDS011;23285;50.180;7.036;2022-11-21T08:53:12;9.80;;;3.73;;
37425;SDS011;23285;50.180;7.036;2022-11-21T08:55:57;10.30;;;3.77;;
37425;SDS011;23285;50.180;7.036;2022-11-21T08:58:42;7.40;;;3.23;;
37425;SDS011;23285;50.180;7.036;2022-11-21T09:01:27;7.43;;;3.13;;
37425;SDS011;23285;50.180;7.036;2022-11-21T09:04:12;9.10;;;3.07;;
37425;SDS011;23285;50.180;7.036;2022-11-21T09:06:57;5.73;;;2.67;;
37425;SDS011;23285;50.180;7.036;2022-11-21T09:09:42;8.83;;;2.57;;
37425;SDS011;23285;50.180;7.036;2022-11-21T09:12:27;4.93;;;2.60;;
37425;SDS011;23285;50.180;7.036;2022-11-21T09:15:12;9.10;;;2.83;;
37425;SDS011;23285;50.180;7.036;2022-11-21T09:18:16;8.87;;;3.37;;
37425;SDS011;23285;50.180;7.036;2022-11-21T09:21:01;5.40;;;2.50;;
37425;SDS011;23285;50.180;7.036;2022-11-21T09:23:46;7.33;;;2.70;;
37425;SDS011;23285;50.180;7.036;2022-11-21T09:26:31;5.47;;;2.10;;
37425;SDS011;23285;50.180;7.036;2022-11-21T09:29:17;5.00;;;2.07;;
37425;SDS011;23285;50.180;7.036;2022-11-21T09:32:02;8.27;;;2.50;;
37425;SDS011;23285;50.180;7.036;2022-11-21T09:34:47;7.57;;;2.60;;
37425;SDS011;23285;50.180;7.036;2022-11-21T09:37:36;6.60;;;2.50;;
37425;SDS011;23285;50.180;7.036;2022-11-21T09:40:22;5.77;;;2.40;;
37425;SDS011;23285;50.180;7.036;2022-11-21T09:43:17;11.77;;;8.30;;
37425;SDS011;23285;50.180;7.036;2022-11-21T09:46:26;8.87;;;2.40;;
37425;SDS011;23285;50.180;7.036;2022-11-21T09:49:19;5.53;;;2.53;;
37425;SDS011;23285;50.180;7.036;2022-11-21T09:52:07;6.90;;;2.50;;
37425;SDS011;23285;50.180;7.036;2022-11-21T09:54:56;4.80;;;2.07;;
37425;SDS011;23285;50.180;7.036;2022-11-21T09:57:43;5.57;;;2.47;;
37425;SDS011;23285;50.180;7.036;2022-11-21T10:00:31;7.77;;;2.93;;
37425;SDS011;23285;50.180;7.036;2022-11-21T10:03:16;4.67;;;2.47;;
37425;SDS011;23285;50.180;7.036;2022-11-21T10:06:16;6.37;;;2.07;;
37425;SDS011;23285;50.180;7.036;2022-11-21T10:24:52;6.33;;;2.37;;
37425;SDS011;23285;50.180;7.036;2022-11-21T10:27:59;6.60;;;2.37;;
37425;SDS011;23285;50.180;7.036;2022-11-21T10:31:03;6.20;;;2.10;;
37425;SDS011;23285;50.180;7.036;2022-11-21T10:33:54;7.47;;;2.37;;
37425;SDS011;23285;50.180;7.036;2022-11-21T10:36:42;4.83;;;2.13;;
37425;SDS011;23285;50.180;7.036;2022-11-21T10:39:37;12.33;;;2.63;;
37425;SDS011;23285;50.180;7.036;2022-11-21T10:45:20;6.93;;;2.50;;
37425;SDS011;23285;50.180;7.036;2022-11-21T10:48:07;3.73;;;2.03;;
37425;SDS011;23285;50.180;7.036;2022-11-21T10:51:09;5.60;;;1.90;;
37425;SDS011;23285;50.180;7.036;2022-11-21T10:54:04;6.83;;;2.27;;
37425;SDS011;23285;50.180;7.036;2022-11-21T10:59:58;3.03;;;1.70;;
37425;SDS011;23285;50.180;7.036;2022-11-21T11:05:38;4.43;;;1.83;;
37425;SDS011;23285;50.180;7.036;2022-11-21T11:08:24;5.00;;;2.03;;
37425;SDS011;23285;50.180;7.036;2022-11-21T11:11:12;10.00;;;2.80;;
37425;SDS011;23285;50.180;7.036;2022-11-21T11:14:04;6.70;;;2.40;;
37425;SDS011;23285;50.180;7.036;2022-11-21T11:16:55;6.20;;;2.73;;
37425;SDS011;23285;50.180;7.036;2022-11-21T11:19:40;9.30;;;3.33;;
37425;SDS011;23285;50.180;7.036;2022-11-21T11:22:44;5.77;;;2.23;;
37425;SDS011;23285;50.180;7.036;2022-11-21T11:25:33;9.10;;;3.23;;
37425;SDS011;23285;50.180;7.036;2022-11-21T11:28:20;7.17;;;2.83;;
37425;SDS011;23285;50.180;7.036;2022-11-21T11:31:07;10.27;;;3.47;;
37425;SDS011;23285;50.180;7.036;2022-11-21T11:33:53;11.37;;;3.23;;
37425;SDS011;23285;50.180;7.036;2022-11-21T11:36:55;7.50;;;3.23;;
37425;SDS011;23285;50.180;7.036;2022-11-21T11:49:17;9.87;;;3.70;;
37425;SDS011;23285;50.180;7.036;2022-11-21T12:01:56;9.10;;;2.60;;
37425;SDS011;23285;50.180;7.036;2022-11-21T12:05:02;8.20;;;2.70;;
37425;SDS011;23285;50.180;7.036;2022-11-21T12:08:02;11.83;;;3.53;;
37425;SDS011;23285;50.180;7.036;2022-11-21T12:10:59;11.73;;;4.17;;
37425;SDS011;23285;50.180;7.036;2022-11-21T12:18:24;11.47;;;2.90;;
37425;SDS011;23285;50.180;7.036;2022-11-21T12:24:00;12.00;;;3.77;;
37425;SDS011;23285;50.180;7.036;2022-11-21T12:26:58;11.30;;;2.90;;
37425;SDS011;23285;50.180;7.036;2022-11-21T12:30:17;8.37;;;3.13;;
37425;SDS011;23285;50.180;7.036;2022-11-21T12:36:09;9.47;;;2.30;;
37425;SDS011;23285;50.180;7.036;2022-11-21T12:39:26;17.17;;;5.77;;
37425;SDS011;23285;50.180;7.036;2022-11-21T12:42:53;8.70;;;2.73;;
37425;SDS011;23285;50.180;7.036;2022-11-21T12:46:16;8.70;;;2.70;;
37425;SDS011;23285;50.180;7.036;2022-11-21T12:52:30;11.60;;;3.53;;
37425;SDS011;23285;50.180;7.036;2022-11-21T12:55:36;14.87;;;6.07;;
37425;SDS011;23285;50.180;7.036;2022-11-21T13:01:28;12.40;;;2.63;;
37425;SDS011;23285;50.180;7.036;2022-11-21T13:04:27;7.70;;;2.60;;
37425;SDS011;23285;50.180;7.036;2022-11-21T13:07:18;11.27;;;3.50;;
37425;SDS011;23285;50.180;7.036;2022-11-21T13:10:05;9.67;;;3.57;;
37425;SDS011;23285;50.180;7.036;2022-11-21T13:12:58;7.67;;;3.00;;
37425;SDS011;23285;50.180;7.036;2022-11-21T13:15:55;10.47;;;2.80;;
37425;SDS011;23285;50.180;7.036;2022-11-21T13:18:45;19.83;;;6.87;;
37425;SDS011;23285;50.180;7.036;2022-11-21T13:22:06;15.63;;;5.30;;
37425;SDS011;23285;50.180;7.036;2022-11-21T13:27:36;20.13;;;7.60;;
37425;SDS011;23285;50.180;7.036;2022-11-21T13:30:25;12.00;;;4.60;;
37425;SDS011;23285;50.180;7.036;2022-11-21T13:33:22;11.60;;;3.97;;
37425;SDS011;23285;50.180;7.036;2022-11-21T13:45:35;19.97;;;6.33;;
37425;SDS011;23285;50.180;7.036;2022-11-21T14:07:23;9.23;;;2.80;;
37425;SDS011;23285;50.180;7.036;2022-11-21T14:13:14;12.97;;;4.97;;
37425;SDS011;23285;50.180;7.036;2022-11-21T14:16:30;15.37;;;4.97;;
37425;SDS011;23285;50.180;7.036;2022-11-21T14:19:20;11.90;;;3.10;;
37425;SDS011;23285;50.180;7.036;2022-11-21T14:22:12;12.47;;;3.73;;
37425;SDS011;23285;50.180;7.036;2022-11-21T14:25:00;11.13;;;3.30;;
37425;SDS011;23285;50.180;7.036;2022-11-21T14:27:56;9.43;;;2.50;;
37425;SDS011;23285;50.180;7.036;2022-11-21T14:30:42;14.63;;;3.23;;
37425;SDS011;23285;50.180;7.036;2022-11-21T14:33:31;10.50;;;4.07;;
37425;SDS011;23285;50.180;7.036;2022-11-21T14:39:07;14.23;;;4.53;;
37425;SDS011;23285;50.180;7.036;2022-11-21T14:41:53;11.77;;;3.27;;
37425;SDS011;23285;50.180;7.036;2022-11-21T14:44:40;11.07;;;3.33;;
37425;SDS011;23285;50.180;7.036;2022-11-21T14:47:25;12.00;;;3.53;;
37425;SDS011;23285;50.180;7.036;2022-11-21T14:50:32;14.07;;;4.23;;
37425;SDS011;23285;50.180;7.036;2022-11-21T14:53:17;14.20;;;4.50;;
37425;SDS011;23285;50.180;7.036;2022-11-21T14:56:02;12.50;;;4.00;;
37425;SDS011;23285;50.180;7.036;2022-11-21T14:58:47;13.50;;;3.97;;
37425;SDS011;23285;50.180;7.036;2022-11-21T15:01:35;11.40;;;4.13;;
37425;SDS011;23285;50.180;7.036;2022-11-21T15:04:25;14.50;;;4.90;;
37425;SDS011;23285;50.180;7.036;2022-11-21T15:07:56;12.57;;;4.40;;
37425;SDS011;23285;50.180;7.036;2022-11-21T15:10:20;13.07;;;4.80;;
37425;SDS011;23285;50.180;7.036;2022-11-21T15:13:09;9.90;;;4.50;;
37425;SDS011;23285;50.180;7.036;2022-11-21T15:15:56;19.80;;;11.03;;
37425;SDS011;23285;50.180;7.036;2022-11-21T15:18:43;25.03;;;13.87;;
37425;SDS011;23285;50.180;7.036;2022-11-21T15:21:28;18.43;;;7.43;;
37425;SDS011;23285;50.180;7.036;2022-11-21T15:33:09;28.67;;;13.80;;
37425;SDS011;23285;50.180;7.036;2022-11-21T15:35:55;31.20;;;17.70;;
37425;SDS011;23285;50.180;7.036;2022-11-21T15:38:43;33.33;;;16.33;;
37425;SDS011;23285;50.180;7.036;2022-11-21T15:41:33;23.63;;;11.60;;
37425;SDS011;23285;50.180;7.036;2022-11-21T15:44:20;13.03;;;5.90;;
37425;SDS011;23285;50.180;7.036;2022-11-21T15:47:06;41.33;;;23.80;;
37425;SDS011;23285;50.180;7.036;2022-11-21T15:49:52;18.57;;;7.87;;
37425;SDS011;23285;50.180;7.036;2022-11-21T15:52:47;22.00;;;10.43;;
37425;SDS011;23285;50.180;7.036;2022-11-21T15:55:34;24.27;;;11.23;;
37425;SDS011;23285;50.180;7.036;2022-11-21T15:58:19;70.47;;;46.87;;
37425;SDS011;23285;50.180;7.036;2022-11-21T16:01:04;42.27;;;22.67;;
37425;SDS011;23285;50.180;7.036;2022-11-21T16:03:51;31.43;;;17.70;;
37425;SDS011;23285;50.180;7.036;2022-11-21T16:06:39;26.03;;;16.03;;
37425;SDS011;23285;50.180;7.036;2022-11-21T16:09:24;29.37;;;15.60;;
37425;SDS011;23285;50.180;7.036;2022-11-21T16:12:08;21.97;;;11.23;;
37425;SDS011;23285;50.180;7.036;2022-11-21T16:14:54;62.20;;;39.60;;
37425;SDS011;23285;50.180;7.036;2022-11-21T16:17:39;32.03;;;17.97;;
37425;SDS011;23285;50.180;7.036;2022-11-21T16:20:24;19.83;;;10.13;;
37425;SDS011;23285;50.180;7.036;2022-11-21T16:23:10;24.67;;;11.93;;
37425;SDS011;23285;50.180;7.036;2022-11-21T16:25:55;13.17;;;6.90;;
37425;SDS011;23285;50.180;7.036;2022-11-21T16:28:41;12.23;;;5.30;;
37425;SDS011;23285;50.180;7.036;2022-11-21T16:31:27;18.40;;;7.47;;
37425;SDS011;23285;50.180;7.036;2022-11-21T16:34:12;23.67;;;10.90;;
37425;SDS011;23285;50.180;7.036;2022-11-21T16:37:02;22.07;;;9.40;;
37425;SDS011;23285;50.180;7.036;2022-11-21T16:39:47;14.70;;;5.93;;
37425;SDS011;23285;50.180;7.036;2022-11-21T16:42:36;26.83;;;11.67;;
37425;SDS011;23285;50.180;7.036;2022-11-21T16:45:21;17.10;;;6.03;;
37425;SDS011;23285;50.180;7.036;2022-11-21T16:48:06;18.77;;;6.97;;
37425;SDS011;23285;50.180;7.036;2022-11-21T16:50:51;19.20;;;6.67;;
37425;SDS011;23285;50.180;7.036;2022-11-21T16:53:37;31.83;;;15.50;;
37425;SDS011;23285;50.180;7.036;2022-11-21T16:56:23;19.63;;;9.67;;
37425;SDS011;23285;50.180;7.036;2022-11-21T16:59:08;22.53;;;10.63;;
37425;SDS011;23285;50.180;7.036;2022-11-21T17:01:54;46.43;;;19.27;;
37425;SDS011;23285;50.180;7.036;2022-11-21T17:04:39;20.17;;;8.60;;
37425;SDS011;23285;50.180;7.036;2022-11-21T17:07:24;21.50;;;9.30;;
37425;SDS011;23285;50.180;7.036;2022-11-21T17:10:09;61.23;;;37.07;;
37425;SDS011;23285;50.180;7.036;2022-11-21T17:12:56;25.80;;;11.43;;
37425;SDS011;23285;50.180;7.036;2022-11-21T17:15:41;20.40;;;8.03;;
37425;SDS011;23285;50.180;7.036;2022-11-21T17:18:26;20.33;;;9.27;;
37425;SDS011;23285;50.180;7.036;2022-11-21T17:21:12;17.67;;;8.90;;
37425;SDS011;23285;50.180;7.036;2022-11-21T17:23:59;14.10;;;5.10;;
37425;SDS011;23285;50.180;7.036;2022-11-21T17:26:44;16.63;;;5.13;;
37425;SDS011;23285;50.180;7.036;2022-11-21T17:29:29;14.57;;;4.40;;
37425;SDS011;23285;50.180;7.036;2022-11-21T17:32:14;13.27;;;5.97;;
37425;SDS011;23285;50.180;7.036;2022-11-21T17:34:59;13.23;;;5.60;;
37425;SDS011;23285;50.180;7.036;2022-11-21T17:37:44;15.03;;;6.33;;
37425;SDS011;23285;50.180;7.036;2022-11-21T17:40:29;18.03;;;7.00;;
37425;SDS011;23285;50.180;7.036;2022-11-21T17:43:14;17.33;;;7.63;;
37425;SDS011;23285;50.180;7.036;2022-11-21T17:46:03;19.93;;;7.73;;
37425;SDS011;23285;50.180;7.036;2022-11-21T17:48:50;15.53;;;6.60;;
37425;SDS011;23285;50.180;7.036;2022-11-21T17:51:35;17.17;;;6.50;;
37425;SDS011;23285;50.180;7.036;2022-11-21T17:54:21;12.63;;;4.93;;
37425;SDS011;23285;50.180;7.036;2022-11-21T17:57:06;14.83;;;4.57;;
37425;SDS011;23285;50.180;7.036;2022-11-21T17:59:51;16.67;;;4.97;;
37425;SDS011;23285;50.180;7.036;2022-11-21T18:02:36;12.20;;;5.17;;
37425;SDS011;23285;50.180;7.036;2022-11-21T18:05:21;12.43;;;5.13;;
37425;SDS011;23285;50.180;7.036;2022-11-21T18:08:06;13.87;;;5.23;;
37425;SDS011;23285;50.180;7.036;2022-11-21T18:10:52;14.60;;;4.97;;
37425;SDS011;23285;50.180;7.036;2022-11-21T18:13:37;15.00;;;5.03;;
37425;SDS011;23285;50.180;7.036;2022-11-21T18:16:24;24.07;;;9.40;;
37425;SDS011;23285;50.180;7.036;2022-11-21T18:19:12;18.57;;;6.83;;
37425;SDS011;23285;50.180;7.036;2022-11-21T18:21:58;19.77;;;8.20;;
37425;SDS011;23285;50.180;7.036;2022-11-21T18:24:43;22.33;;;11.20;;
37425;SDS011;23285;50.180;7.036;2022-11-21T18:27:29;18.37;;;9.00;;
37425;SDS011;23285;50.180;7.036;2022-11-21T18:30:14;16.97;;;6.23;;
37425;SDS011;23285;50.180;7.036;2022-11-21T18:33:00;21.67;;;9.40;;
37425;SDS011;23285;50.180;7.036;2022-11-21T18:35:46;17.03;;;7.93;;
37425;SDS011;23285;50.180;7.036;2022-11-21T18:38:32;20.97;;;11.93;;
37425;SDS011;23285;50.180;7.036;2022-11-21T18:41:19;21.10;;;9.97;;